createdAt,value
2022-11-06T00:00:42.600Z,51.00
2022-11-06T00:06:59.508Z,51.20
2022-11-06T00:13:13.468Z,51.20
2022-11-06T00:19:29.192Z,50.80
2022-11-06T00:25:44.795Z,50.80
2022-11-06T00:32:03.326Z,50.60
2022-11-06T00:38:16.981Z,50.80
2022-11-06T00:44:30.116Z,50.40
2022-11-06T00:50:47.775Z,50.00
2022-11-06T00:57:00.131Z,49.60
2022-11-06T01:03:14.492Z,50.10
2022-11-06T01:09:30.292Z,50.80
2022-11-06T01:15:48.007Z,50.60
2022-11-06T01:22:04.406Z,50.00
2022-11-06T01:28:15.713Z,50.00
2022-11-06T01:34:26.599Z,50.00
2022-11-06T01:40:38.552Z,50.60
2022-11-06T01:46:50.751Z,50.50
2022-11-06T01:53:05.324Z,49.90
2022-11-06T01:59:20.765Z,49.70
2022-11-06T02:05:34.854Z,50.40
2022-11-06T02:11:48.746Z,50.80
2022-11-06T02:18:23.071Z,50.30
2022-11-06T02:24:50.744Z,50.60
2022-11-06T02:31:07.405Z,49.20
2022-11-06T02:37:22.919Z,50.40
2022-11-06T02:43:45.174Z,50.20
2022-11-06T02:50:06.627Z,49.50
2022-11-06T02:56:29.511Z,49.40
2022-11-06T03:02:43.424Z,49.70
2022-11-06T03:08:55.857Z,50.20
2022-11-06T03:15:13.064Z,49.90
2022-11-06T03:21:27.860Z,49.70
2022-11-06T03:27:45.715Z,48.80
2022-11-06T03:33:57.482Z,49.40
2022-11-06T03:40:22.563Z,49.70
2022-11-06T03:46:35.765Z,49.50
2022-11-06T03:52:48.468Z,49.40
2022-11-06T03:59:03.358Z,48.90
2022-11-06T04:05:20.963Z,49.60
2022-11-06T04:11:51.450Z,49.50
2022-11-06T04:18:07.020Z,48.70
2022-11-06T04:24:38.796Z,48.90
2022-11-06T04:30:54.137Z,48.60
2022-11-06T04:37:14.888Z,49.30
2022-11-06T04:43:29.664Z,49.40
2022-11-06T04:49:48.422Z,48.70
2022-11-06T04:56:04.929Z,48.50
2022-11-06T05:02:13.754Z,48.70
2022-11-06T05:08:26.381Z,49.10
2022-11-06T05:14:39.875Z,49.00
2022-11-06T05:20:57.133Z,48.60
2022-11-06T05:27:10.510Z,48.30
2022-11-06T05:33:27.176Z,48.60
2022-11-06T05:39:42.019Z,49.10
2022-11-06T05:45:59.194Z,48.90
2022-11-06T05:52:15.100Z,48.60
2022-11-06T05:58:28.389Z,48.50
2022-11-06T06:04:43.169Z,48.80
2022-11-06T06:10:58.379Z,49.20
2022-11-06T06:17:11.671Z,48.80
2022-11-06T06:23:26.394Z,48.80
2022-11-06T06:29:39.431Z,48.70
2022-11-06T06:35:51.573Z,48.90
2022-11-06T06:42:08.254Z,49.20
2022-11-06T06:48:24.851Z,48.90
2022-11-06T06:54:39.498Z,48.90
2022-11-06T07:00:55.328Z,48.80
2022-11-06T07:07:08.229Z,49.00
2022-11-06T07:13:23.181Z,49.20
2022-11-06T07:19:38.553Z,49.00
2022-11-06T07:25:51.951Z,48.90
2022-11-06T07:32:09.263Z,48.90
2022-11-06T07:38:23.825Z,49.20
2022-11-06T07:44:42.327Z,49.20
2022-11-06T07:50:58.173Z,49.00
2022-11-06T07:57:10.751Z,48.80
2022-11-06T08:03:29.178Z,48.90
2022-11-06T08:09:46.437Z,49.20
2022-11-06T08:16:02.724Z,49.20
2022-11-06T08:22:15.207Z,49.00
2022-11-06T08:28:31.272Z,49.00
2022-11-06T08:34:47.301Z,48.90
2022-11-06T08:40:58.721Z,49.30
2022-11-06T08:47:13.598Z,49.20
2022-11-06T08:53:31.650Z,49.10
2022-11-06T08:59:47.814Z,49.10
2022-11-06T09:06:03.642Z,49.10
2022-11-06T09:12:19.252Z,49.50
2022-11-06T09:18:33.923Z,49.20
2022-11-06T09:25:03.096Z,49.10
2022-11-06T09:31:06.813Z,49.00
2022-11-06T09:37:23.612Z,49.20
2022-11-06T09:50:04.570Z,49.20
2022-11-06T09:56:18.481Z,49.00
2022-11-06T10:02:37.223Z,48.90
2022-11-06T10:08:52.449Z,49.20
2022-11-06T10:15:14.898Z,49.40
2022-11-06T10:21:34.708Z,49.10
2022-11-06T10:27:51.423Z,49.50
2022-11-06T10:34:12.803Z,48.80
2022-11-06T10:40:33.345Z,49.00
2022-11-06T10:46:46.643Z,49.10
2022-11-06T10:53:05.997Z,49.00
2022-11-06T10:59:21.117Z,48.90
2022-11-06T11:05:39.792Z,49.00
2022-11-06T11:11:54.300Z,49.20
2022-11-06T11:18:23.895Z,48.90
2022-11-06T11:24:40.401Z,48.80
2022-11-06T11:30:54.935Z,48.60
2022-11-06T11:37:15.391Z,48.70
2022-11-06T11:43:36.128Z,48.70
2022-11-06T11:49:56.722Z,48.70
2022-11-06T11:56:14.610Z,48.80
2022-11-06T12:02:30.726Z,48.80
2022-11-06T12:08:45.244Z,48.70
2022-11-06T12:15:08.448Z,48.60
2022-11-06T12:21:29.638Z,48.70
2022-11-06T12:27:49.763Z,48.50
2022-11-06T12:34:06.794Z,48.60
2022-11-06T12:40:29.702Z,48.70
2022-11-06T12:46:50.096Z,48.60
2022-11-06T12:53:26.641Z,48.60
2022-11-06T12:59:50.311Z,48.60
2022-11-06T13:06:11.897Z,48.80
2022-11-06T13:12:24.436Z,48.90
2022-11-06T13:18:38.377Z,49.10
2022-11-06T13:24:50.048Z,49.20
2022-11-06T13:31:05.505Z,49.00
2022-11-06T13:37:22.432Z,49.10
2022-11-06T13:43:39.345Z,49.10
2022-11-06T13:49:54.423Z,49.20
2022-11-06T13:56:18.711Z,49.40
2022-11-06T14:02:54.213Z,49.40
2022-11-06T14:09:10.853Z,49.60
2022-11-06T14:15:28.823Z,49.50
2022-11-06T14:21:58.011Z,49.60
2022-11-06T14:28:15.441Z,49.60
2022-11-06T14:34:42.522Z,49.70
2022-11-06T14:40:58.691Z,49.90
2022-11-06T14:47:13.199Z,49.70
2022-11-06T14:53:32.842Z,49.70
2022-11-06T14:59:46.716Z,49.70
2022-11-06T15:05:59.933Z,49.70
2022-11-06T15:12:14.086Z,49.60
2022-11-06T15:18:28.550Z,48.90
2022-11-06T15:24:41.766Z,48.60
2022-11-06T15:30:58.958Z,48.10
2022-11-06T15:37:14.259Z,48.00
2022-11-06T15:43:33.292Z,47.70
2022-11-06T15:49:51.439Z,47.20
2022-11-06T15:56:06.934Z,46.90
2022-11-06T16:02:26.308Z,47.40
2022-11-06T16:08:40.617Z,46.60
2022-11-06T16:14:53.436Z,46.20
2022-11-06T16:21:05.134Z,45.80
2022-11-06T16:27:26.150Z,45.70
2022-11-06T16:33:39.073Z,45.70
2022-11-06T16:39:56.079Z,46.20
2022-11-06T16:46:08.952Z,46.50
2022-11-06T16:52:42.436Z,47.30
2022-11-06T16:59:00.817Z,47.10
2022-11-06T17:05:16.775Z,46.50
2022-11-06T17:11:28.768Z,46.90
2022-11-06T17:17:42.810Z,46.30
2022-11-06T17:24:07.614Z,45.80
2022-11-06T17:30:16.510Z,45.40
2022-11-06T17:36:29.595Z,45.70
2022-11-06T17:42:44.801Z,45.50
2022-11-06T17:48:56.095Z,45.30
2022-11-06T17:55:12.351Z,45.00
2022-11-06T18:01:23.300Z,45.00
2022-11-06T18:07:39.879Z,45.30
2022-11-06T18:13:56.353Z,45.20
2022-11-06T18:20:08.385Z,45.00
2022-11-06T18:26:27.900Z,45.00
2022-11-06T18:32:41.746Z,45.10
2022-11-06T18:38:55.643Z,45.20
2022-11-06T18:45:11.907Z,45.00
2022-11-06T18:51:33.358Z,44.90
2022-11-06T18:57:33.196Z,45.00
2022-11-06T19:03:45.426Z,45.20
2022-11-06T19:10:02.204Z,45.60
2022-11-06T19:16:19.994Z,45.30
2022-11-06T19:22:36.047Z,45.30
2022-11-06T19:28:49.755Z,45.20
2022-11-06T19:41:26.315Z,45.70
2022-11-06T19:47:42.376Z,45.50
2022-11-06T19:53:58.141Z,45.40
2022-11-06T20:00:20.217Z,45.30
2022-11-06T20:06:32.697Z,45.80
2022-11-06T20:12:47.172Z,46.00
2022-11-06T20:19:07.878Z,45.70
2022-11-06T20:25:22.517Z,45.60
2022-11-06T20:31:40.530Z,45.60
2022-11-06T20:37:58.285Z,45.90
2022-11-06T20:44:14.352Z,46.00
2022-11-06T20:50:26.999Z,45.70
2022-11-06T20:56:39.568Z,45.60
2022-11-06T21:03:00.474Z,45.70
2022-11-06T21:09:09.968Z,46.00
2022-11-06T21:15:22.097Z,46.10
2022-11-06T21:21:40.636Z,45.90
2022-11-06T21:27:56.511Z,45.90
2022-11-06T21:34:07.497Z,45.70
2022-11-06T21:40:27.246Z,46.30
2022-11-06T21:46:45.658Z,46.30
2022-11-06T21:53:15.081Z,45.90
2022-11-06T21:59:36.343Z,45.90
2022-11-06T22:05:48.153Z,45.90
2022-11-06T22:12:04.551Z,46.30
2022-11-06T22:18:14.700Z,46.20
2022-11-06T22:24:28.722Z,46.00
2022-11-06T22:30:42.235Z,45.90
2022-11-06T22:36:56.034Z,46.00
2022-11-06T22:43:14.249Z,46.30
2022-11-06T22:55:44.384Z,46.10
2022-11-06T23:02:02.238Z,46.10
2022-11-06T23:08:19.193Z,46.10
2022-11-06T23:14:34.135Z,46.10
2022-11-06T23:20:50.514Z,46.00
2022-11-06T23:27:04.096Z,46.00
2022-11-06T23:33:17.868Z,46.00
2022-11-06T23:39:32.157Z,46.60
2022-11-06T23:45:57.697Z,46.10
2022-11-06T23:52:14.462Z,46.00
2022-11-06T23:58:32.193Z,46.00
